Time;durP1;ratioP1;P1;durP2;ratioP2;P2;SDS_P1;SDS_P2;PMS_P1;PMS_P2;Temp;Humidity;BMP_temperature;BMP_pressure;BME280_temperature;BME280_humidity;BME280_pressure;Samples;Min_cycle;Max_cycle;Signal;HPM_P1;HPM_P2
2022/02/16 00:02:23;;;;;;;331.73;79.32;;;;;;;;;;5117405;28;20220;-74
2022/02/16 00:04:51;;;;;;;326.35;77.38;;;;;;;;;;5113068;28;20225;-75
2022/02/16 00:07:19;;;;;;;324.48;74.13;;;;;;;;;;5119152;27;20205;-75
2022/02/16 00:09:47;;;;;;;333.87;79.23;;;;;;;;;;5118481;28;20205;-75
2022/02/16 00:12:15;;;;;;;330.40;76.82;;;;;;;;;;5116486;28;20477;-75
2022/02/16 00:14:42;;;;;;;324.73;76.27;;;;;;;;;;5116315;28;20219;-75
2022/02/16 00:17:12;;;;;;;327.13;79.80;;;;;;;;;;5116605;28;20463;-75
2022/02/16 00:19:41;;;;;;;4.77;2.63;;;;;;;;;;5116173;28;20209;-75
2022/02/16 00:22:09;;;;;;;7.40;3.13;;;;;;;;;;5117028;28;20466;-75
2022/02/16 00:24:40;;;;;;;5.13;2.30;;;;;;;;;;5116802;28;20532;-75
2022/02/16 00:27:08;;;;;;;3.43;2.77;;;;;;;;;;5118564;28;20497;-75
2022/02/16 00:29:36;;;;;;;5.47;3.10;;;;;;;;;;5117567;28;20447;-74
2022/02/16 00:32:04;;;;;;;4.50;2.60;;;;;;;;;;5118539;28;20462;-75
2022/02/16 00:34:34;;;;;;;4.57;3.00;;;;;;;;;;5116767;28;20459;-74
2022/02/16 00:37:01;;;;;;;2.70;2.37;;;;;;;;;;5118702;28;20549;-75
2022/02/16 00:39:29;;;;;;;2.50;2.20;;;;;;;;;;5117983;28;20458;-74
2022/02/16 00:41:57;;;;;;;3.73;2.77;;;;;;;;;;5118046;28;20462;-75
2022/02/16 00:44:25;;;;;;;4.13;3.10;;;;;;;;;;5118153;28;20459;-74
2022/02/16 00:46:54;;;;;;;4.30;2.93;;;;;;;;;;5117454;28;20886;-74
2022/02/16 00:49:22;;;;;;;4.20;3.10;;;;;;;;;;5116103;28;20455;-74
2022/02/16 00:51:54;;;;;;;4.00;2.73;;;;;;;;;;5118457;28;20458;-75
2022/02/16 00:54:22;;;;;;;3.83;3.10;;;;;;;;;;5113847;28;20446;-74
2022/02/16 00:56:50;;;;;;;3.53;2.70;;;;;;;;;;5115852;28;20451;-74
2022/02/16 00:59:19;;;;;;;3.57;2.70;;;;;;;;;;5118222;28;20466;-74
2022/02/16 01:01:47;;;;;;;4.07;2.70;;;;;;;;;;5117247;28;20462;-75
2022/02/16 01:04:15;;;;;;;4.83;3.50;;;;;;;;;;5117970;28;20455;-75
2022/02/16 01:06:43;;;;;;;8.23;2.90;;;;;;;;;;5117709;28;20455;-75
2022/02/16 01:09:12;;;;;;;3.47;2.50;;;;;;;;;;5117874;28;20803;-75
2022/02/16 01:11:40;;;;;;;4.57;2.97;;;;;;;;;;5116215;28;20843;-74
2022/02/16 01:14:08;;;;;;;9.60;2.50;;;;;;;;;;5118026;28;20475;-74
2022/02/16 01:16:36;;;;;;;4.67;3.50;;;;;;;;;;5114890;28;20492;-74
2022/02/16 01:19:04;;;;;;;4.60;2.73;;;;;;;;;;5114928;28;20461;-74
2022/02/16 01:21:39;;;;;;;4.03;2.47;;;;;;;;;;5117300;27;20554;-74
2022/02/16 01:24:08;;;;;;;4.00;3.10;;;;;;;;;;5115499;28;20474;-74
2022/02/16 01:26:37;;;;;;;3.57;2.57;;;;;;;;;;5118047;28;20494;-74
2022/02/16 01:29:05;;;;;;;3.27;2.10;;;;;;;;;;5105358;28;20460;-75
2022/02/16 01:31:33;;;;;;;4.17;2.50;;;;;;;;;;5098178;28;20496;-74
2022/02/16 01:34:00;;;;;;;3.43;2.10;;;;;;;;;;5114338;28;20465;-74
2022/02/16 01:36:29;;;;;;;5.97;2.67;;;;;;;;;;5113854;28;20723;-74
2022/02/16 01:38:56;;;;;;;2.80;2.10;;;;;;;;;;5115690;28;20785;-75
2022/02/16 01:41:24;;;;;;;4.30;2.70;;;;;;;;;;5111009;28;20909;-74
2022/02/16 01:43:58;;;;;;;3.80;2.50;;;;;;;;;;5106448;28;20545;-74
2022/02/16 01:46:28;;;;;;;3.53;2.37;;;;;;;;;;5072724;28;20625;-75
2022/02/16 01:48:56;;;;;;;5.07;2.63;;;;;;;;;;5117658;28;20554;-74
2022/02/16 01:51:25;;;;;;;2.90;2.60;;;;;;;;;;5117312;28;20451;-74
2022/02/16 01:53:52;;;;;;;3.90;2.57;;;;;;;;;;5115178;28;20478;-74
2022/02/16 01:56:21;;;;;;;3.10;2.80;;;;;;;;;;5115340;28;20454;-74
2022/02/16 01:58:49;;;;;;;3.77;2.83;;;;;;;;;;5117630;28;21118;-74
2022/02/16 02:01:18;;;;;;;4.87;2.53;;;;;;;;;;5117501;28;20459;-74
2022/02/16 02:03:50;;;;;;;2.80;1.97;;;;;;;;;;5116592;28;20983;-74
2022/02/16 02:06:18;;;;;;;4.43;2.57;;;;;;;;;;5113888;28;20482;-74
2022/02/16 02:08:45;;;;;;;4.73;3.17;;;;;;;;;;5114296;28;20455;-75
2022/02/16 02:11:13;;;;;;;2.43;2.23;;;;;;;;;;5114851;28;20455;-74
2022/02/16 02:13:54;;;;;;;3.30;3.00;;;;;;;;;;5114492;28;20462;-74
2022/02/16 02:16:23;;;;;;;3.63;2.93;;;;;;;;;;5114535;28;21025;-74
2022/02/16 02:18:51;;;;;;;3.30;2.50;;;;;;;;;;5114378;28;20893;-74
2022/02/16 02:21:21;;;;;;;3.30;2.40;;;;;;;;;;5114714;28;20458;-74
2022/02/16 02:23:49;;;;;;;7.33;3.07;;;;;;;;;;5094500;28;20464;-74
2022/02/16 02:26:18;;;;;;;3.40;2.70;;;;;;;;;;5094242;28;20490;-74
2022/02/16 02:28:52;;;;;;;5.10;3.40;;;;;;;;;;5110139;28;20485;-74
2022/02/16 02:31:28;;;;;;;4.60;3.30;;;;;;;;;;5113270;28;20552;-74
2022/02/16 02:33:56;;;;;;;2.60;2.23;;;;;;;;;;5116431;28;21002;-74
2022/02/16 02:36:26;;;;;;;4.00;3.30;;;;;;;;;;5114947;28;20455;-74
2022/02/16 02:38:54;;;;;;;2.83;2.40;;;;;;;;;;5115180;27;20458;-76
2022/02/16 02:41:22;;;;;;;4.50;3.10;;;;;;;;;;5114298;28;20451;-74
2022/02/16 02:43:53;;;;;;;6.20;3.37;;;;;;;;;;5114577;28;20500;-75
2022/02/16 02:46:22;;;;;;;3.30;2.73;;;;;;;;;;5116637;28;20764;-73
2022/02/16 02:48:50;;;;;;;4.63;3.07;;;;;;;;;;5115551;28;20464;-74
2022/02/16 02:51:18;;;;;;;7.47;3.53;;;;;;;;;;5113879;28;20538;-74
2022/02/16 02:53:47;;;;;;;5.03;3.17;;;;;;;;;;5116969;28;20463;-74
2022/02/16 02:56:22;;;;;;;3.90;2.60;;;;;;;;;;5116892;28;20487;-74
2022/02/16 02:58:53;;;;;;;4.73;3.33;;;;;;;;;;5114500;28;20765;-74
2022/02/16 03:01:21;;;;;;;4.43;3.33;;;;;;;;;;5116164;28;20458;-74
2022/02/16 03:03:50;;;;;;;3.33;2.90;;;;;;;;;;5115125;28;20894;-74
2022/02/16 03:06:24;;;;;;;4.73;2.83;;;;;;;;;;5114304;28;21011;-74
2022/02/16 03:08:53;;;;;;;3.30;2.70;;;;;;;;;;5117094;28;20545;-73
2022/02/16 03:11:21;;;;;;;3.60;3.13;;;;;;;;;;5116379;28;20455;-75
2022/02/16 03:13:49;;;;;;;3.00;2.70;;;;;;;;;;5114253;28;20506;-75
2022/02/16 03:16:17;;;;;;;3.27;2.80;;;;;;;;;;5113737;28;20451;-75
2022/02/16 03:18:45;;;;;;;2.87;2.57;;;;;;;;;;5114483;28;20477;-74
2022/02/16 03:21:13;;;;;;;3.37;2.40;;;;;;;;;;5113626;28;20524;-74
2022/02/16 03:23:41;;;;;;;3.70;2.80;;;;;;;;;;5114292;28;20463;-74
2022/02/16 03:26:11;;;;;;;3.63;2.70;;;;;;;;;;5117777;28;20529;-76
2022/02/16 03:28:39;;;;;;;3.23;2.60;;;;;;;;;;5117502;28;20490;-74
2022/02/16 03:31:08;;;;;;;2.80;2.50;;;;;;;;;;5117897;28;20450;-75
2022/02/16 03:33:38;;;;;;;2.20;1.90;;;;;;;;;;5118794;28;20894;-75
2022/02/16 03:36:12;;;;;;;3.13;2.23;;;;;;;;;;5113645;28;20443;-74
2022/02/16 03:38:40;;;;;;;2.90;2.63;;;;;;;;;;5111688;28;20454;-74
2022/02/16 03:41:08;;;;;;;3.40;2.30;;;;;;;;;;5112955;28;20454;-75
2022/02/16 03:43:37;;;;;;;2.60;2.17;;;;;;;;;;5112738;28;20914;-75
2022/02/16 03:46:05;;;;;;;3.23;2.33;;;;;;;;;;5113770;28;20946;-74
2022/02/16 03:48:33;;;;;;;3.30;2.50;;;;;;;;;;5110135;28;20866;-74
2022/02/16 03:51:01;;;;;;;4.70;2.50;;;;;;;;;;5113851;28;20458;-75
2022/02/16 03:53:29;;;;;;;3.43;2.67;;;;;;;;;;5114286;28;20451;-75
2022/02/16 03:56:01;;;;;;;3.23;2.70;;;;;;;;;;5108292;28;20531;-74
2022/02/16 03:58:30;;;;;;;3.07;2.53;;;;;;;;;;5115880;28;20463;-75
2022/02/16 04:01:02;;;;;;;3.00;2.50;;;;;;;;;;5109618;28;20545;-75
2022/02/16 04:03:30;;;;;;;3.70;3.10;;;;;;;;;;5110239;28;20893;-74
2022/02/16 04:05:57;;;;;;;4.40;2.70;;;;;;;;;;5111542;28;20478;-74
2022/02/16 04:08:25;;;;;;;3.70;3.20;;;;;;;;;;5116112;28;20489;-74
2022/02/16 04:10:53;;;;;;;4.23;3.47;;;;;;;;;;5111841;28;20463;-75
2022/02/16 04:13:21;;;;;;;5.27;3.80;;;;;;;;;;5103385;28;20512;-74
2022/02/16 04:15:54;;;;;;;5.00;3.93;;;;;;;;;;5106390;28;20531;-75
2022/02/16 04:18:24;;;;;;;5.60;4.97;;;;;;;;;;5115334;28;20454;-74
2022/02/16 04:20:52;;;;;;;5.53;4.43;;;;;;;;;;5118394;28;20458;-74
2022/02/16 04:23:19;;;;;;;5.80;4.73;;;;;;;;;;5119294;28;20465;-74
2022/02/16 04:25:47;;;;;;;6.10;4.70;;;;;;;;;;5119322;28;20490;-74
2022/02/16 04:28:15;;;;;;;8.20;4.30;;;;;;;;;;5117028;28;20451;-74
2022/02/16 04:30:46;;;;;;;5.50;4.27;;;;;;;;;;5117580;28;20949;-74
2022/02/16 04:33:14;;;;;;;6.00;4.50;;;;;;;;;;5118800;27;20469;-73
2022/02/16 04:35:43;;;;;;;5.47;4.93;;;;;;;;;;5119150;28;20463;-74
2022/02/16 04:38:11;;;;;;;5.50;4.60;;;;;;;;;;5118763;28;20455;-74
2022/02/16 04:40:39;;;;;;;4.00;3.10;;;;;;;;;;5118454;28;20459;-74
2022/02/16 04:43:07;;;;;;;5.10;3.63;;;;;;;;;;5119462;28;20497;-74
2022/02/16 04:45:35;;;;;;;4.57;3.77;;;;;;;;;;5118761;28;20877;-74
2022/02/16 04:48:04;;;;;;;4.57;3.73;;;;;;;;;;5116056;28;20455;-74
2022/02/16 04:50:33;;;;;;;4.77;4.20;;;;;;;;;;5116657;28;20817;-74
2022/02/16 04:53:03;;;;;;;4.47;3.50;;;;;;;;;;5118862;28;20542;-74
2022/02/16 04:55:31;;;;;;;5.87;3.80;;;;;;;;;;5118440;28;20462;-73
2022/02/16 04:57:59;;;;;;;4.33;3.20;;;;;;;;;;5117541;28;20545;-74
2022/02/16 05:00:30;;;;;;;5.00;3.73;;;;;;;;;;5116377;28;20508;-74
2022/02/16 05:02:58;;;;;;;4.27;3.50;;;;;;;;;;5116855;28;20471;-74
2022/02/16 05:05:25;;;;;;;4.00;3.60;;;;;;;;;;5116265;28;20751;-74
2022/02/16 05:07:53;;;;;;;3.73;2.77;;;;;;;;;;5116801;28;20479;-74
2022/02/16 05:10:22;;;;;;;4.17;2.90;;;;;;;;;;5115497;28;20455;-74
2022/02/16 05:12:50;;;;;;;3.13;2.50;;;;;;;;;;5118300;28;20466;-73
2022/02/16 05:15:20;;;;;;;3.50;2.90;;;;;;;;;;5117273;28;20451;-74
2022/02/16 05:17:48;;;;;;;4.87;3.23;;;;;;;;;;5114816;28;20447;-74
2022/02/16 05:20:15;;;;;;;3.47;2.53;;;;;;;;;;5115610;28;20463;-74
2022/02/16 05:22:43;;;;;;;2.70;2.40;;;;;;;;;;5115734;28;20881;-74
2022/02/16 05:25:11;;;;;;;2.63;2.13;;;;;;;;;;5116542;28;20539;-74
2022/02/16 05:27:40;;;;;;;3.63;2.57;;;;;;;;;;5115918;28;20498;-74
2022/02/16 05:30:09;;;;;;;3.50;2.77;;;;;;;;;;5115884;28;20535;-74
2022/02/16 05:32:37;;;;;;;4.27;2.17;;;;;;;;;;5116152;28;20807;-74
2022/02/16 05:35:05;;;;;;;3.20;2.43;;;;;;;;;;5115529;28;20469;-74
2022/02/16 05:37:33;;;;;;;3.17;2.43;;;;;;;;;;5117845;28;20943;-74
2022/02/16 05:40:01;;;;;;;2.60;2.27;;;;;;;;;;5098792;28;20474;-73
2022/02/16 05:42:28;;;;;;;3.83;2.90;;;;;;;;;;5110835;28;20447;-74
2022/02/16 05:44:57;;;;;;;3.50;2.37;;;;;;;;;;5078743;28;20979;-73
2022/02/16 05:47:25;;;;;;;2.63;2.30;;;;;;;;;;5095268;28;20487;-74
2022/02/16 05:49:53;;;;;;;3.63;2.53;;;;;;;;;;5095993;28;20899;-75
2022/02/16 05:52:21;;;;;;;2.80;2.43;;;;;;;;;;5096181;28;20451;-74
2022/02/16 05:54:48;;;;;;;2.80;2.50;;;;;;;;;;5098200;28;20471;-75
2022/02/16 05:57:19;;;;;;;3.27;2.50;;;;;;;;;;5113911;27;20536;-75
2022/02/16 05:59:51;;;;;;;5.43;3.63;;;;;;;;;;5114342;28;20554;-74
2022/02/16 06:02:21;;;;;;;3.30;2.60;;;;;;;;;;5114441;28;20470;-74
2022/02/16 06:04:48;;;;;;;3.70;2.30;;;;;;;;;;5113493;28;20455;-74
2022/02/16 06:07:16;;;;;;;3.83;2.83;;;;;;;;;;5112978;28;20594;-74
2022/02/16 06:09:47;;;;;;;3.30;2.30;;;;;;;;;;5080326;28;20526;-74
2022/02/16 06:12:14;;;;;;;2.93;2.10;;;;;;;;;;5115877;28;20466;-74
2022/02/16 06:14:45;;;;;;;2.33;2.13;;;;;;;;;;5116226;28;20543;-74
2022/02/16 06:17:14;;;;;;;7.33;5.70;;;;;;;;;;5113026;28;20462;-74
2022/02/16 06:19:43;;;;;;;3.33;2.43;;;;;;;;;;5113698;28;20869;-75
2022/02/16 06:22:11;;;;;;;3.87;2.67;;;;;;;;;;5112491;28;20459;-74
2022/02/16 06:24:39;;;;;;;2.80;2.40;;;;;;;;;;5113976;28;20458;-73
2022/02/16 06:27:07;;;;;;;2.60;1.93;;;;;;;;;;5112734;28;20473;-74
2022/02/16 06:29:36;;;;;;;2.83;2.00;;;;;;;;;;5112118;28;20541;-75
2022/02/16 06:32:07;;;;;;;3.20;2.57;;;;;;;;;;5109865;28;20545;-75
2022/02/16 06:34:38;;;;;;;1.90;1.70;;;;;;;;;;5112077;28;20546;-75
2022/02/16 06:37:07;;;;;;;2.47;1.70;;;;;;;;;;5111768;28;20564;-74
2022/02/16 06:39:38;;;;;;;3.00;1.87;;;;;;;;;;5107189;28;20455;-73
2022/02/16 06:42:06;;;;;;;3.50;1.80;;;;;;;;;;5111003;28;20496;-73
2022/02/16 06:44:34;;;;;;;2.07;1.73;;;;;;;;;;5110573;28;20450;-73
2022/02/16 06:47:03;;;;;;;2.77;1.97;;;;;;;;;;5112952;28;20941;-73
2022/02/16 06:49:31;;;;;;;5.90;2.80;;;;;;;;;;5113044;28;20454;-73
2022/02/16 06:51:59;;;;;;;3.57;2.33;;;;;;;;;;5110595;28;20451;-73
2022/02/16 06:54:31;;;;;;;2.63;2.10;;;;;;;;;;5110748;28;20478;-73
2022/02/16 06:57:01;;;;;;;3.00;2.10;;;;;;;;;;5096202;28;20459;-74
2022/02/16 06:59:34;;;;;;;3.60;2.27;;;;;;;;;;5113737;28;20867;-73
2022/02/16 07:02:02;;;;;;;4.77;2.87;;;;;;;;;;5112953;28;20833;-73
2022/02/16 07:04:34;;;;;;;5.03;2.40;;;;;;;;;;5114318;28;20761;-74
2022/02/16 07:07:02;;;;;;;3.00;1.80;;;;;;;;;;5114200;28;20482;-73
2022/02/16 07:09:31;;;;;;;5.90;2.70;;;;;;;;;;5113455;28;20453;-73
2022/02/16 07:11:59;;;;;;;3.53;2.40;;;;;;;;;;5112775;28;20787;-73
2022/02/16 07:14:35;;;;;;;3.43;2.70;;;;;;;;;;5112255;28;20459;-73
2022/02/16 07:17:02;;;;;;;2.87;2.57;;;;;;;;;;5114032;28;20466;-73
2022/02/16 07:19:30;;;;;;;3.13;2.30;;;;;;;;;;5111586;28;20455;-73
2022/02/16 07:21:59;;;;;;;3.00;2.40;;;;;;;;;;5113252;28;20467;-73
2022/02/16 07:24:27;;;;;;;3.20;2.53;;;;;;;;;;5111961;28;20454;-73
2022/02/16 07:26:59;;;;;;;3.23;2.20;;;;;;;;;;5111137;28;20541;-74
2022/02/16 07:29:29;;;;;;;2.40;2.00;;;;;;;;;;5113476;28;20788;-73
2022/02/16 07:32:04;;;;;;;3.97;2.57;;;;;;;;;;5109565;28;20491;-73
2022/02/16 07:34:34;;;;;;;5.30;2.53;;;;;;;;;;5090950;28;20489;-73
2022/02/16 07:37:05;;;;;;;3.07;2.20;;;;;;;;;;5102377;28;20511;-73
2022/02/16 07:39:36;;;;;;;3.03;2.60;;;;;;;;;;5111944;28;20447;-73
2022/02/16 07:42:05;;;;;;;3.23;2.30;;;;;;;;;;5110925;28;20486;-74
2022/02/16 07:44:33;;;;;;;4.37;2.93;;;;;;;;;;5112781;28;20459;-74
2022/02/16 07:47:02;;;;;;;2.83;2.13;;;;;;;;;;5112802;28;20494;-73
2022/02/16 07:49:30;;;;;;;4.37;2.93;;;;;;;;;;5114403;28;20467;-73
2022/02/16 07:51:59;;;;;;;4.80;2.33;;;;;;;;;;5113972;28;20554;-74
2022/02/16 07:54:27;;;;;;;3.27;2.33;;;;;;;;;;5112254;28;20458;-74
2022/02/16 07:56:54;;;;;;;4.33;2.10;;;;;;;;;;5114289;28;20477;-74
2022/02/16 07:59:28;;;;;;;2.40;1.80;;;;;;;;;;5114430;28;20519;-74
2022/02/16 08:01:57;;;;;;;2.63;2.13;;;;;;;;;;5114555;28;20734;-73
2022/02/16 08:04:25;;;;;;;3.37;2.17;;;;;;;;;;5114394;28;20462;-74
2022/02/16 08:06:53;;;;;;;2.00;1.50;;;;;;;;;;5114545;28;20494;-74
2022/02/16 08:09:22;;;;;;;3.60;2.67;;;;;;;;;;5114507;28;20751;-74
2022/02/16 08:11:55;;;;;;;2.23;1.73;;;;;;;;;;5113531;28;20886;-74
2022/02/16 08:14:24;;;;;;;3.40;2.40;;;;;;;;;;5115000;28;20458;-74
2022/02/16 08:16:55;;;;;;;3.73;2.40;;;;;;;;;;5117270;28;20484;-75
2022/02/16 08:19:30;;;;;;;2.87;1.60;;;;;;;;;;5117756;28;20447;-74
2022/02/16 08:21:58;;;;;;;3.27;1.87;;;;;;;;;;5118564;28;20461;-73
2022/02/16 08:24:27;;;;;;;3.30;1.53;;;;;;;;;;5117198;27;20469;-72
2022/02/16 08:26:57;;;;;;;3.50;1.37;;;;;;;;;;5116110;28;20637;-74
2022/02/16 08:29:29;;;;;;;1.80;1.33;;;;;;;;;;5117117;28;20494;-74
2022/02/16 08:31:57;;;;;;;1.60;1.10;;;;;;;;;;5114591;28;20459;-73
2022/02/16 08:34:29;;;;;;;2.60;1.80;;;;;;;;;;5114667;28;20450;-74
2022/02/16 08:36:57;;;;;;;2.60;1.93;;;;;;;;;;5115249;28;20476;-74
2022/02/16 08:39:26;;;;;;;18.67;4.73;;;;;;;;;;5115658;28;20534;-74
2022/02/16 08:41:54;;;;;;;3.33;2.37;;;;;;;;;;5116337;28;20482;-73
2022/02/16 08:44:21;;;;;;;2.90;1.67;;;;;;;;;;5113492;28;20443;-74
2022/02/16 08:47:04;;;;;;;2.33;1.77;;;;;;;;;;5113881;28;20742;-74
2022/02/16 08:49:31;;;;;;;4.03;2.33;;;;;;;;;;5111874;28;20495;-74
2022/02/16 08:52:05;;;;;;;2.70;1.57;;;;;;;;;;5116918;28;20585;-74
2022/02/16 08:54:35;;;;;;;2.20;1.30;;;;;;;;;;5113108;28;20531;-74
2022/02/16 08:57:14;;;;;;;4.00;1.80;;;;;;;;;;5116663;28;20454;-74
2022/02/16 08:59:42;;;;;;;3.73;2.93;;;;;;;;;;5113928;28;20977;-74
2022/02/16 09:02:29;;;;;;;2.73;1.30;;;;;;;;;;5113140;27;20463;-72
2022/02/16 09:05:07;;;;;;;2.57;1.53;;;;;;;;;;5112463;28;21033;-74
2022/02/16 09:07:43;;;;;;;4.13;2.73;;;;;;;;;;5118371;27;20494;-76
2022/02/16 09:10:29;;;;;;;5.60;2.00;;;;;;;;;;5132668;27;20451;-74
2022/02/16 09:13:06;;;;;;;2.37;1.40;;;;;;;;;;5095651;28;20451;-73
2022/02/16 09:15:35;;;;;;;1.70;1.10;;;;;;;;;;5094459;28;20467;-73
2022/02/16 09:18:06;;;;;;;2.17;1.20;;;;;;;;;;5094632;28;20459;-73
2022/02/16 09:20:35;;;;;;;1.83;1.13;;;;;;;;;;5093691;28;20463;-73
2022/02/16 09:23:03;;;;;;;1.47;1.00;;;;;;;;;;5093638;28;20522;-74
2022/02/16 09:25:31;;;;;;;2.37;1.10;;;;;;;;;;5076798;28;20553;-74
2022/02/16 09:27:59;;;;;;;1.93;1.57;;;;;;;;;;5105981;28;20675;-74
2022/02/16 09:30:28;;;;;;;1.60;1.20;;;;;;;;;;5117514;28;20741;-74
2022/02/16 09:32:57;;;;;;;2.30;1.23;;;;;;;;;;5115289;28;20454;-74
2022/02/16 09:35:34;;;;;;;2.43;1.57;;;;;;;;;;5117074;28;20454;-74
2022/02/16 09:38:03;;;;;;;5.93;3.03;;;;;;;;;;5117350;28;20930;-74
2022/02/16 09:40:32;;;;;;;2.47;1.50;;;;;;;;;;5116987;28;20443;-74
2022/02/16 09:43:02;;;;;;;3.33;1.97;;;;;;;;;;5116740;28;20453;-72
2022/02/16 09:45:30;;;;;;;2.47;1.00;;;;;;;;;;5115635;28;20474;-73
2022/02/16 09:48:00;;;;;;;1.70;1.00;;;;;;;;;;5115470;28;20945;-73
2022/02/16 09:50:32;;;;;;;1.53;0.87;;;;;;;;;;5116838;28;20586;-73
2022/02/16 09:53:00;;;;;;;1.83;1.07;;;;;;;;;;5115459;28;20587;-73
2022/02/16 09:55:53;;;;;;;2.47;1.27;;;;;;;;;;5112351;28;20750;-73
2022/02/16 09:58:29;;;;;;;2.10;1.10;;;;;;;;;;5114175;28;20462;-73
2022/02/16 10:01:03;;;;;;;1.80;1.10;;;;;;;;;;5113034;28;20447;-73
2022/02/16 10:03:31;;;;;;;3.30;1.90;;;;;;;;;;5112057;28;20450;-74
2022/02/16 10:06:06;;;;;;;1.40;0.73;;;;;;;;;;5108801;28;20534;-72
2022/02/16 10:09:09;;;;;;;1.67;0.90;;;;;;;;;;5093788;28;20490;-73
2022/02/16 10:11:59;;;;;;;5.10;1.40;;;;;;;;;;5110096;28;20502;-72
2022/02/16 10:14:35;;;;;;;1.73;0.70;;;;;;;;;;5115080;28;20496;-74
2022/02/16 10:17:20;;;;;;;1.47;0.80;;;;;;;;;;5109177;28;20512;-73
2022/02/16 10:19:57;;;;;;;1.33;0.80;;;;;;;;;;5087087;27;20474;-74
2022/02/16 10:22:48;;;;;;;1.63;0.90;;;;;;;;;;5126293;27;20937;-73
2022/02/16 10:25:33;;;;;;;1.50;0.83;;;;;;;;;;5121027;27;20443;-73
2022/02/16 10:28:11;;;;;;;1.57;0.80;;;;;;;;;;5121357;27;20482;-75
2022/02/16 10:31:22;;;;;;;;;;;;;;;;;;;;;
2022/02/16 10:33:55;;;;;;;1.20;0.60;;;;;;;;;;5114783;27;20687;-73
2022/02/16 10:36:33;;;;;;;2.00;0.70;;;;;;;;;;5118677;27;20462;-73
2022/02/16 10:39:10;;;;;;;1.63;0.80;;;;;;;;;;5120944;27;20449;-74
2022/02/16 10:41:48;;;;;;;1.70;0.50;;;;;;;;;;5115428;27;20858;-74
2022/02/16 10:44:23;;;;;;;1.10;0.60;;;;;;;;;;5117307;27;20514;-74
2022/02/16 10:47:03;;;;;;;1.20;0.50;;;;;;;;;;5106638;27;20438;-74
2022/02/16 10:49:32;;;;;;;1.20;0.60;;;;;;;;;;5116736;28;20954;-73
2022/02/16 10:52:15;;;;;;;1.63;0.60;;;;;;;;;;5122203;27;20450;-73
2022/02/16 10:54:53;;;;;;;1.17;0.60;;;;;;;;;;5115608;27;20459;-73
2022/02/16 10:57:20;;;;;;;1.33;0.70;;;;;;;;;;5120684;27;20456;-74
2022/02/16 10:59:49;;;;;;;1.10;0.60;;;;;;;;;;5111993;28;20461;-72
2022/02/16 11:02:25;;;;;;;1.40;0.87;;;;;;;;;;5116685;28;20921;-73
2022/02/16 11:04:55;;;;;;;1.30;0.60;;;;;;;;;;5103400;28;20455;-72
2022/02/16 11:07:27;;;;;;;1.17;0.63;;;;;;;;;;5104598;28;20824;-73
2022/02/16 11:09:57;;;;;;;2.23;0.80;;;;;;;;;;5094018;28;20487;-73
2022/02/16 11:12:27;;;;;;;1.30;0.63;;;;;;;;;;5098636;28;20791;-72
2022/02/16 11:14:55;;;;;;;1.27;0.70;;;;;;;;;;5113563;28;20481;-71
2022/02/16 11:17:33;;;;;;;1.00;0.60;;;;;;;;;;5114934;28;20549;-72
2022/02/16 11:20:19;;;;;;;1.17;0.50;;;;;;;;;;5113570;28;20489;-72
2022/02/16 11:22:51;;;;;;;2.57;1.50;;;;;;;;;;5107941;28;20472;-73
2022/02/16 11:25:31;;;;;;;2.67;1.53;;;;;;;;;;5100255;28;20840;-72
2022/02/16 11:28:00;;;;;;;1.20;0.60;;;;;;;;;;5112152;28;20485;-72
2022/02/16 11:33:31;;;;;;;2.63;1.17;;;;;;;;;;5087410;28;20435;-73
2022/02/16 11:36:05;;;;;;;1.40;0.70;;;;;;;;;;5111742;28;21216;-72
2022/02/16 11:38:48;;;;;;;1.40;0.83;;;;;;;;;;5111927;28;20918;-72
2022/02/16 11:41:24;;;;;;;1.90;0.83;;;;;;;;;;5099240;28;20965;-71
2022/02/16 11:43:57;;;;;;;1.40;0.70;;;;;;;;;;5111223;28;20747;-72
2022/02/16 11:46:41;;;;;;;2.60;1.70;;;;;;;;;;5115502;28;20578;-72
2022/02/16 11:49:33;;;;;;;2.00;1.00;;;;;;;;;;5117655;28;20488;-71
2022/02/16 11:52:01;;;;;;;1.47;0.83;;;;;;;;;;5117893;28;20461;-71
2022/02/16 11:54:55;;;;;;;2.00;1.27;;;;;;;;;;5120888;27;20473;-72
2022/02/16 11:57:42;;;;;;;1.87;1.10;;;;;;;;;;5135827;27;20560;-71
2022/02/16 12:00:25;;;;;;;2.43;1.47;;;;;;;;;;5135231;27;20518;-71
2022/02/16 12:03:12;;;;;;;1.60;0.90;;;;;;;;;;5115095;28;20548;-72
2022/02/16 12:05:49;;;;;;;1.90;1.20;;;;;;;;;;5116548;27;20466;-71
2022/02/16 12:08:18;;;;;;;1.60;1.00;;;;;;;;;;5116478;27;20497;-71
2022/02/16 12:10:47;;;;;;;1.53;0.80;;;;;;;;;;5116204;28;20496;-71
2022/02/16 12:13:25;;;;;;;1.87;1.17;;;;;;;;;;5114191;28;20470;-71
2022/02/16 12:15:56;;;;;;;2.20;0.97;;;;;;;;;;5110077;28;20458;-70
2022/02/16 12:18:25;;;;;;;1.60;0.60;;;;;;;;;;5113741;28;20535;-71
2022/02/16 12:20:53;;;;;;;1.23;0.60;;;;;;;;;;5113509;28;20707;-72
2022/02/16 12:23:21;;;;;;;1.50;0.90;;;;;;;;;;5108460;28;20471;-72
2022/02/16 12:26:07;;;;;;;1.20;0.60;;;;;;;;;;5113286;28;20672;-71
2022/02/16 12:28:50;;;;;;;1.83;0.83;;;;;;;;;;5113792;28;20516;-72
2022/02/16 12:31:18;;;;;;;2.10;1.30;;;;;;;;;;5112468;28;20454;-72
2022/02/16 12:33:52;;;;;;;3.10;1.00;;;;;;;;;;5116081;28;20463;-72
2022/02/16 12:36:20;;;;;;;1.53;1.00;;;;;;;;;;5114818;28;20461;-72
2022/02/16 12:38:50;;;;;;;2.33;0.90;;;;;;;;;;5111751;28;20562;-72
2022/02/16 12:41:19;;;;;;;1.33;0.83;;;;;;;;;;5106565;28;20829;-71
2022/02/16 12:43:59;;;;;;;1.80;0.97;;;;;;;;;;5106238;28;20504;-71
2022/02/16 12:46:28;;;;;;;1.80;1.10;;;;;;;;;;5114668;28;20462;-72
2022/02/16 12:48:58;;;;;;;1.80;1.20;;;;;;;;;;5112871;27;20478;-72
2022/02/16 12:51:27;;;;;;;1.40;0.80;;;;;;;;;;5116685;27;20875;-73
2022/02/16 12:53:57;;;;;;;1.93;1.40;;;;;;;;;;5098082;28;20462;-73
2022/02/16 12:56:37;;;;;;;6.30;2.30;;;;;;;;;;5114002;27;20454;-73
2022/02/16 12:59:16;;;;;;;1.87;1.30;;;;;;;;;;5116366;27;20457;-73
2022/02/16 13:01:48;;;;;;;2.87;1.30;;;;;;;;;;5099935;28;20479;-72
2022/02/16 13:04:16;;;;;;;3.30;2.33;;;;;;;;;;5114162;27;20525;-72
2022/02/16 13:06:45;;;;;;;1.90;1.30;;;;;;;;;;5129300;27;20454;-73
2022/02/16 13:12:12;;;;;;;1.97;1.33;;;;;;;;;;5106251;28;20443;-72
2022/02/16 13:14:42;;;;;;;1.50;1.10;;;;;;;;;;5115312;28;20454;-72
2022/02/16 13:17:10;;;;;;;1.60;1.20;;;;;;;;;;5113323;28;20439;-72
2022/02/16 13:19:55;;;;;;;1.40;0.87;;;;;;;;;;5117019;28;20458;-75
2022/02/16 13:22:27;;;;;;;1.60;1.13;;;;;;;;;;5116000;28;20879;-71
2022/02/16 13:25:06;;;;;;;2.37;1.70;;;;;;;;;;5116842;28;20591;-72
2022/02/16 13:27:46;;;;;;;1.50;0.90;;;;;;;;;;5115890;28;20496;-72
2022/02/16 13:30:19;;;;;;;1.90;1.20;;;;;;;;;;5115261;28;20492;-71
2022/02/16 13:32:47;;;;;;;2.77;1.70;;;;;;;;;;5114854;28;20451;-72
2022/02/16 13:35:20;;;;;;;6.30;3.50;;;;;;;;;;5117259;27;20458;-72
2022/02/16 13:38:01;;;;;;;3.60;2.23;;;;;;;;;;5110721;28;20800;-71
2022/02/16 13:40:33;;;;;;;3.93;1.90;;;;;;;;;;5122599;27;20922;-72
2022/02/16 13:43:10;;;;;;;2.10;1.40;;;;;;;;;;5119585;27;20447;-72
2022/02/16 13:45:41;;;;;;;2.27;1.60;;;;;;;;;;5117803;27;20477;-72
2022/02/16 13:48:09;;;;;;;2.87;1.57;;;;;;;;;;5114080;27;20451;-71
2022/02/16 13:50:38;;;;;;;1.83;1.30;;;;;;;;;;5124114;27;20508;-71
2022/02/16 13:53:07;;;;;;;2.83;1.93;;;;;;;;;;5103513;28;20432;-72
2022/02/16 13:55:54;;;;;;;3.30;2.10;;;;;;;;;;5093443;27;20858;-72
2022/02/16 13:58:29;;;;;;;3.37;2.47;;;;;;;;;;5117911;27;20448;-71
2022/02/16 14:01:12;;;;;;;2.67;1.33;;;;;;;;;;5123285;27;20439;-70
2022/02/16 14:03:45;;;;;;;2.27;1.63;;;;;;;;;;5126728;27;20444;-70
2022/02/16 14:06:17;;;;;;;2.70;1.50;;;;;;;;;;5115233;27;20459;-71
2022/02/16 14:08:45;;;;;;;3.60;1.90;;;;;;;;;;5113472;28;20544;-71
2022/02/16 14:11:20;;;;;;;2.63;1.17;;;;;;;;;;5112637;28;20454;-71
2022/02/16 14:13:48;;;;;;;3.60;1.57;;;;;;;;;;5115400;28;20460;-72
2022/02/16 14:16:17;;;;;;;4.17;2.03;;;;;;;;;;5113930;28;20463;-71
2022/02/16 14:19:22;;;;;;;3.43;2.03;;;;;;;;;;5113703;28;20459;-71
2022/02/16 14:21:38;;;;;;;6.47;2.50;;;;;;;;;;5113722;27;20515;-71
2022/02/16 14:24:08;;;;;;;7.37;3.47;;;;;;;;;;5115355;28;20442;-72
2022/02/16 14:26:52;;;;;;;3.23;2.33;;;;;;;;;;5113624;27;20455;-71
2022/02/16 14:29:28;;;;;;;6.20;2.93;;;;;;;;;;5095695;27;20478;-72
2022/02/16 14:31:57;;;;;;;3.30;2.23;;;;;;;;;;5111718;28;20462;-71
2022/02/16 14:34:26;;;;;;;5.50;2.60;;;;;;;;;;5112816;28;20731;-72
2022/02/16 14:36:54;;;;;;;4.63;3.20;;;;;;;;;;5111942;27;20458;-71
2022/02/16 14:39:22;;;;;;;7.10;3.20;;;;;;;;;;5112376;28;20446;-71
2022/02/16 14:41:53;;;;;;;7.50;3.33;;;;;;;;;;5108344;28;20783;-69
2022/02/16 14:44:33;;;;;;;9.00;3.97;;;;;;;;;;5114836;27;20442;-72
2022/02/16 14:47:13;;;;;;;9.10;3.33;;;;;;;;;;5111065;28;20555;-71
2022/02/16 14:49:49;;;;;;;6.67;4.10;;;;;;;;;;5111834;28;20481;-73
2022/02/16 14:52:23;;;;;;;8.90;3.50;;;;;;;;;;5110325;28;20851;-70
2022/02/16 14:54:55;;;;;;;5.60;3.47;;;;;;;;;;5114185;28;20947;-71
2022/02/16 14:57:33;;;;;;;6.37;3.10;;;;;;;;;;5110632;28;20921;-72
2022/02/16 15:00:14;;;;;;;4.23;3.30;;;;;;;;;;5110491;28;20458;-72
2022/02/16 15:03:03;;;;;;;8.07;4.27;;;;;;;;;;5091680;28;20855;-71
2022/02/16 15:05:38;;;;;;;4.87;3.50;;;;;;;;;;5089966;28;20936;-72
2022/02/16 15:08:06;;;;;;;10.90;4.57;;;;;;;;;;5099066;28;20564;-71
2022/02/16 15:10:35;;;;;;;8.33;5.70;;;;;;;;;;5112475;28;20618;-71
2022/02/16 15:13:06;;;;;;;9.97;4.43;;;;;;;;;;5124208;28;20556;-71
2022/02/16 15:15:34;;;;;;;5.00;3.47;;;;;;;;;;5130031;28;20466;-72